Time;durP1;ratioP1;P1;durP2;ratioP2;P2;SDS_P1;SDS_P2;PMS_P1;PMS_P2;Temp;Humidity;BMP_temperature;BMP_pressure;BME280_temperature;BME280_humidity;BME280_pressure;Samples;Min_cycle;Max_cycle;Signal;HPM_P1;HPM_P2
2024/01/02 00:00:31;;;;;;;;;;;5.80;99.90;;;;;;5070444;28;19920;-82
2024/01/02 00:02:57;;;;;;;;;;;5.80;99.90;;;;;;5052111;28;19921;-82
2024/01/02 00:05:22;;;;;;;;;;;5.80;99.90;;;;;;5051652;28;19950;-83
2024/01/02 00:07:48;;;;;;;;;;;5.80;99.90;;;;;;5052574;28;19991;-83
2024/01/02 00:10:14;;;;;;;;;;;5.80;99.90;;;;;;5081206;28;19960;-82
2024/01/02 00:12:40;;;;;;;;;;;5.80;99.90;;;;;;5049153;28;19921;-82
2024/01/02 00:15:06;;;;;;;;;;;5.80;99.90;;;;;;5050940;28;19973;-81
2024/01/02 00:17:31;;;;;;;;;;;5.80;99.90;;;;;;5072875;28;19967;-83
2024/01/02 00:19:57;;;;;;;;;;;5.80;99.90;;;;;;5054430;28;19978;-82
2024/01/02 00:22:22;;;;;;;;;;;5.80;99.90;;;;;;5050923;28;19986;-82
2024/01/02 00:24:48;;;;;;;;;;;5.80;99.90;;;;;;5047057;28;19925;-82
2024/01/02 00:27:13;;;;;;;;;;;5.80;99.90;;;;;;5058740;28;20368;-82
2024/01/02 00:29:39;;;;;;;;;;;5.80;99.90;;;;;;5067533;28;19924;-82
2024/01/02 00:32:05;;;;;;;;;;;5.80;99.90;;;;;;5051009;28;19973;-81
2024/01/02 00:34:30;;;;;;;;;;;5.80;99.90;;;;;;5052074;28;19921;-82
2024/01/02 00:36:57;;;;;;;;;;;5.80;99.90;;;;;;5050600;28;19920;-82
2024/01/02 00:39:22;;;;;;;;;;;5.80;99.90;;;;;;5050907;28;19924;-81
2024/01/02 00:41:49;;;;;;;;;;;5.80;99.90;;;;;;5050363;28;20295;-82
2024/01/02 00:44:15;;;;;;;;;;;5.80;99.90;;;;;;5068741;28;19920;-81
2024/01/02 00:46:41;;;;;;;;;;;5.80;99.90;;;;;;5073960;28;20260;-82
2024/01/02 00:49:06;;;;;;;;;;;5.80;99.90;;;;;;5048351;28;19920;-81
2024/01/02 00:51:32;;;;;;;;;;;5.90;99.90;;;;;;5051440;28;19921;-82
2024/01/02 00:53:59;;;;;;;;;;;5.90;99.90;;;;;;5050098;28;19974;-83
2024/01/02 00:56:24;;;;;;;;;;;5.80;99.90;;;;;;5051366;28;19927;-82
2024/01/02 00:58:50;;;;;;;;;;;5.80;99.90;;;;;;5051095;28;19924;-82
2024/01/02 01:01:19;;;;;;;;;;;6.00;99.90;;;;;;5075392;28;20427;-82
2024/01/02 01:03:45;;;;;;;;;;;5.90;99.90;;;;;;5067079;28;20368;-82
2024/01/02 01:06:10;;;;;;;;;;;5.90;99.90;;;;;;5048573;28;19971;-83
2024/01/02 01:08:36;;;;;;;;;;;5.90;99.90;;;;;;5050031;28;19966;-83
2024/01/02 01:11:02;;;;;;;;;;;6.00;99.90;;;;;;5050114;28;19932;-82
2024/01/02 01:13:27;;;;;;;;;;;5.90;99.90;;;;;;5049146;28;19920;-82
2024/01/02 01:15:53;;;;;;;;;;;5.90;99.90;;;;;;5050079;28;19965;-82
2024/01/02 01:18:18;;;;;;;;;;;6.00;99.90;;;;;;5049181;28;20011;-82
2024/01/02 01:20:44;;;;;;;;;;;6.00;99.90;;;;;;5067910;28;19963;-82
2024/01/02 01:23:09;;;;;;;;;;;6.00;99.90;;;;;;5048842;28;19920;-81
2024/01/02 01:25:35;;;;;;;;;;;6.20;99.90;;;;;;5041971;28;19966;-82
2024/01/02 01:28:00;;;;;;;;;;;6.00;99.90;;;;;;5043511;28;19951;-82
2024/01/02 01:30:26;;;;;;;;;;;6.30;99.90;;;;;;5049848;28;20284;-82
2024/01/02 01:32:51;;;;;;;;;;;6.00;99.90;;;;;;5068184;28;20303;-82
2024/01/02 01:35:17;;;;;;;;;;;6.00;99.90;;;;;;5063309;28;19921;-82
2024/01/02 01:37:42;;;;;;;;;;;6.60;99.90;;;;;;5050661;28;19920;-81
2024/01/02 01:40:09;;;;;;;;;;;6.00;99.90;;;;;;5067079;28;19935;-82
2024/01/02 01:42:34;;;;;;;;;;;6.00;99.90;;;;;;5050022;28;19920;-81
2024/01/02 01:45:00;;;;;;;;;;;6.00;99.90;;;;;;5035347;28;19984;-80
2024/01/02 01:47:26;;;;;;;;;;;6.30;99.90;;;;;;5070694;28;19935;-81
2024/01/02 01:49:51;;;;;;;;;;;6.00;99.90;;;;;;5042085;28;19920;-81
2024/01/02 01:52:17;;;;;;;;;;;6.10;99.90;;;;;;5043820;28;19925;-80
2024/01/02 01:54:43;;;;;;;;;;;6.00;99.90;;;;;;5042483;28;20127;-81
2024/01/02 01:57:09;;;;;;;;;;;6.00;99.90;;;;;;5061961;28;20378;-81
2024/01/02 01:59:36;;;;;;;;;;;6.10;99.90;;;;;;5048430;28;19920;-81
2024/01/02 02:02:02;;;;;;;;;;;6.10;99.90;;;;;;5049996;28;19920;-80
2024/01/02 02:04:28;;;;;;;;;;;6.10;99.90;;;;;;5049463;28;19916;-83
2024/01/02 02:06:54;;;;;;;;;;;6.10;99.90;;;;;;5047051;28;19925;-80
2024/01/02 02:09:20;;;;;;;;;;;6.10;99.90;;;;;;5067542;28;19927;-80
2024/01/02 02:11:45;;;;;;;;;;;6.10;99.90;;;;;;5049003;28;19920;-81
2024/01/02 02:14:11;;;;;;;;;;;6.10;99.90;;;;;;5064651;28;20298;-80
2024/01/02 02:16:40;;;;;;;;;;;6.10;99.90;;;;;;5031508;28;19935;-81
2024/01/02 02:19:06;;;;;;;;;;;6.60;99.90;;;;;;5047241;28;19928;-82
2024/01/02 02:21:33;;;;;;;;;;;6.10;99.90;;;;;;5048059;28;19921;-81
2024/01/02 02:23:59;;;;;;;;;;;6.10;99.90;;;;;;5049289;28;19965;-81
2024/01/02 02:26:25;;;;;;;;;;;6.20;99.90;;;;;;5060871;28;19920;-81
2024/01/02 02:28:50;;;;;;;;;;;6.40;99.90;;;;;;5044337;28;20607;-80
2024/01/02 02:31:19;;;;;;;;;;;6.20;99.90;;;;;;5049064;28;20288;-81
2024/01/02 02:33:44;;;;;;;;;;;6.20;99.90;;;;;;5049700;28;20018;-82
2024/01/02 02:36:10;;;;;;;;;;;6.20;99.90;;;;;;5046854;28;20019;-81
2024/01/02 02:38:35;;;;;;;;;;;6.20;99.90;;;;;;5046750;28;19928;-81
2024/01/02 02:41:01;;;;;;;;;;;6.60;99.90;;;;;;5047436;28;19928;-83
2024/01/02 02:43:27;;;;;;;;;;;6.20;99.90;;;;;;5044124;28;20015;-82
2024/01/02 02:45:52;;;;;;;;;;;6.20;99.90;;;;;;5036830;28;20280;-82
2024/01/02 02:48:18;;;;;;;;;;;6.20;99.90;;;;;;5061063;28;19924;-82
2024/01/02 02:50:43;;;;;;;;;;;6.20;99.90;;;;;;5048600;28;19921;-82
2024/01/02 02:53:09;;;;;;;;;;;6.20;99.90;;;;;;5052221;28;20338;-81
2024/01/02 02:55:34;;;;;;;;;;;6.90;99.90;;;;;;5054105;28;20019;-81
2024/01/02 02:58:00;;;;;;;;;;;6.30;99.90;;;;;;5052738;28;19936;-81
2024/01/02 03:00:25;;;;;;;;;;;6.90;99.90;;;;;;5044611;28;20017;-81
2024/01/02 03:02:51;;;;;;;;;;;6.30;99.90;;;;;;5066258;28;19963;-81
2024/01/02 03:05:16;;;;;;;;;;;6.30;99.90;;;;;;5048290;28;19920;-81
2024/01/02 03:07:42;;;;;;;;;;;6.80;99.90;;;;;;5051356;28;19954;-81
2024/01/02 03:10:10;;;;;;;;;;;6.30;99.90;;;;;;5052155;28;20777;-81
2024/01/02 03:12:35;;;;;;;;;;;6.30;99.90;;;;;;5047015;28;19921;-82
2024/01/02 03:15:01;;;;;;;;;;;6.30;99.90;;;;;;5047404;28;20390;-82
2024/01/02 03:17:26;;;;;;;;;;;6.30;99.90;;;;;;5045127;28;20347;-81
2024/01/02 03:19:52;;;;;;;;;;;6.30;99.90;;;;;;5046988;28;19920;-82
2024/01/02 03:22:17;;;;;;;;;;;6.30;99.90;;;;;;5051964;28;19932;-81
2024/01/02 03:24:43;;;;;;;;;;;6.30;99.90;;;;;;5069429;28;19920;-81
2024/01/02 03:27:08;;;;;;;;;;;6.40;99.90;;;;;;5048935;28;19928;-81
2024/01/02 03:29:34;;;;;;;;;;;6.40;99.90;;;;;;5032601;28;19927;-82
2024/01/02 03:32:00;;;;;;;;;;;6.40;99.90;;;;;;5050447;28;19920;-81
2024/01/02 03:34:25;;;;;;;;;;;6.40;99.90;;;;;;5050112;28;20011;-82
2024/01/02 03:36:51;;;;;;;;;;;6.40;99.90;;;;;;5052472;28;19920;-81
2024/01/02 03:39:16;;;;;;;;;;;6.40;99.90;;;;;;5052481;28;19924;-82
2024/01/02 03:41:42;;;;;;;;;;;6.50;99.90;;;;;;5051178;28;19920;-81
2024/01/02 03:44:07;;;;;;;;;;;6.40;99.90;;;;;;5051428;28;19931;-82
2024/01/02 03:46:33;;;;;;;;;;;6.30;99.90;;;;;;5053330;28;20001;-81
2024/01/02 03:48:58;;;;;;;;;;;6.40;99.90;;;;;;5051752;28;19975;-81
2024/01/02 03:51:24;;;;;;;;;;;6.50;99.90;;;;;;5051483;28;19946;-81
2024/01/02 03:53:50;;;;;;;;;;;6.40;99.90;;;;;;5051620;28;19966;-81
2024/01/02 03:56:16;;;;;;;;;;;6.50;99.90;;;;;;5051281;28;19931;-82
2024/01/02 03:58:42;;;;;;;;;;;6.40;99.90;;;;;;5068920;28;19947;-82
2024/01/02 04:01:07;;;;;;;;;;;6.40;99.90;;;;;;5049596;28;20308;-81
2024/01/02 04:03:33;;;;;;;;;;;6.40;99.90;;;;;;5050833;28;19931;-82
2024/01/02 04:05:58;;;;;;;;;;;6.40;99.90;;;;;;5051905;28;19962;-81
2024/01/02 04:08:24;;;;;;;;;;;6.50;99.90;;;;;;5051725;28;19920;-82
2024/01/02 04:10:49;;;;;;;;;;;6.40;99.90;;;;;;5049234;28;19923;-82
2024/01/02 04:13:15;;;;;;;;;;;6.50;99.90;;;;;;5043219;28;19930;-82
2024/01/02 04:15:40;;;;;;;;;;;6.50;99.90;;;;;;5044634;28;19921;-82
2024/01/02 04:18:06;;;;;;;;;;;6.50;99.90;;;;;;5054124;28;19974;-82
2024/01/02 04:20:31;;;;;;;;;;;5.60;99.90;;;;;;5048875;28;19932;-81
2024/01/02 04:22:57;;;;;;;;;;;6.50;99.90;;;;;;5047151;28;19974;-82
2024/01/02 04:25:23;;;;;;;;;;;6.80;99.90;;;;;;5044675;28;19967;-81
2024/01/02 04:27:53;;;;;;;;;;;6.40;99.90;;;;;;5040311;28;19921;-81
2024/01/02 04:30:18;;;;;;;;;;;6.40;99.90;;;;;;5031615;28;19978;-82
2024/01/02 04:32:44;;;;;;;;;;;6.50;99.90;;;;;;5047130;28;20015;-81
2024/01/02 04:35:09;;;;;;;;;;;6.60;99.90;;;;;;5037232;28;19968;-81
2024/01/02 04:37:35;;;;;;;;;;;6.50;99.90;;;;;;5040871;28;19917;-81
2024/01/02 04:40:00;;;;;;;;;;;6.50;99.90;;;;;;5043790;28;19921;-81
2024/01/02 04:42:26;;;;;;;;;;;6.50;99.90;;;;;;5048746;28;19927;-81
2024/01/02 04:44:51;;;;;;;;;;;6.50;99.90;;;;;;5045629;28;19928;-81
2024/01/02 04:47:17;;;;;;;;;;;6.50;99.90;;;;;;5047852;28;19949;-81
2024/01/02 04:49:42;;;;;;;;;;;6.50;99.90;;;;;;5048352;28;19921;-81
2024/01/02 04:52:08;;;;;;;;;;;6.50;99.90;;;;;;5049246;28;19982;-80
2024/01/02 04:54:34;;;;;;;;;;;6.50;99.90;;;;;;5047996;28;19947;-81
2024/01/02 04:56:59;;;;;;;;;;;6.50;99.90;;;;;;5046429;28;19928;-82
2024/01/02 04:59:25;;;;;;;;;;;6.50;99.90;;;;;;5047604;28;20434;-82
2024/01/02 05:01:51;;;;;;;;;;;6.60;99.90;;;;;;5048123;28;19956;-81
2024/01/02 05:04:16;;;;;;;;;;;6.50;99.90;;;;;;5047090;28;20372;-81
2024/01/02 05:06:42;;;;;;;;;;;6.50;99.90;;;;;;5047390;28;20532;-82
2024/01/02 05:09:08;;;;;;;;;;;6.50;99.90;;;;;;5046227;28;19931;-81
2024/01/02 05:11:37;;;;;;;;;;;6.60;99.90;;;;;;5047427;28;20185;-82
2024/01/02 05:14:03;;;;;;;;;;;6.50;99.90;;;;;;5043732;28;19928;-81
2024/01/02 05:16:29;;;;;;;;;;;6.60;99.90;;;;;;5047611;28;20357;-81
2024/01/02 05:18:54;;;;;;;;;;;6.70;99.90;;;;;;5043805;28;19921;-82
2024/01/02 05:21:20;;;;;;;;;;;6.60;99.90;;;;;;5040450;28;19928;-81
2024/01/02 05:23:45;;;;;;;;;;;6.60;99.90;;;;;;5047176;28;20360;-81
2024/01/02 05:26:11;;;;;;;;;;;6.60;99.90;;;;;;5046877;28;19930;-82
2024/01/02 05:28:36;;;;;;;;;;;6.60;99.90;;;;;;5043381;28;19916;-82
2024/01/02 05:31:02;;;;;;;;;;;6.60;99.90;;;;;;5038273;28;20575;-82
2024/01/02 05:33:27;;;;;;;;;;;6.60;99.90;;;;;;5046399;28;20371;-81
2024/01/02 05:35:53;;;;;;;;;;;6.60;99.90;;;;;;5047745;28;19916;-82
2024/01/02 05:38:19;;;;;;;;;;;6.70;99.90;;;;;;5045938;28;19925;-82
2024/01/02 05:40:44;;;;;;;;;;;6.60;99.90;;;;;;5047954;28;20023;-81
2024/01/02 05:43:10;;;;;;;;;;;6.60;99.90;;;;;;5042890;28;19976;-83
2024/01/02 05:45:36;;;;;;;;;;;6.60;99.90;;;;;;5045533;28;19921;-82
2024/01/02 05:48:02;;;;;;;;;;;6.60;99.90;;;;;;5046254;28;19928;-82
2024/01/02 05:50:27;;;;;;;;;;;6.60;99.90;;;;;;5045673;28;19924;-83
2024/01/02 05:52:53;;;;;;;;;;;6.70;99.90;;;;;;5047789;28;19927;-82
2024/01/02 05:55:18;;;;;;;;;;;6.60;99.90;;;;;;5048238;28;19920;-81
2024/01/02 05:57:44;;;;;;;;;;;6.60;99.90;;;;;;5045184;28;19920;-82
2024/01/02 06:00:10;;;;;;;;;;;6.60;99.90;;;;;;5045676;28;20536;-83
2024/01/02 06:02:35;;;;;;;;;;;6.60;99.90;;;;;;5047735;28;19943;-82
2024/01/02 06:05:01;;;;;;;;;;;6.60;99.90;;;;;;5046850;28;19921;-81
2024/01/02 06:07:27;;;;;;;;;;;6.50;99.90;;;;;;5041872;28;19917;-81
2024/01/02 06:09:52;;;;;;;;;;;6.60;99.90;;;;;;5046994;28;19975;-82
2024/01/02 06:12:18;;;;;;;;;;;6.60;99.90;;;;;;5047644;28;19925;-82
2024/01/02 06:14:43;;;;;;;;;;;6.60;99.90;;;;;;5049131;28;19969;-82
2024/01/02 06:17:09;;;;;;;;;;;6.60;99.90;;;;;;5045422;28;19921;-84
2024/01/02 06:19:34;;;;;;;;;;;6.60;99.90;;;;;;5049061;28;19935;-84
2024/01/02 06:22:00;;;;;;;;;;;6.60;99.90;;;;;;5047240;28;19928;-82
2024/01/02 06:24:25;;;;;;;;;;;6.60;99.90;;;;;;5049766;28;19921;-82
2024/01/02 06:26:51;;;;;;;;;;;6.60;99.90;;;;;;5051533;28;20343;-82
2024/01/02 06:29:16;;;;;;;;;;;6.60;99.90;;;;;;5050771;28;20284;-82
2024/01/02 06:31:42;;;;;;;;;;;6.60;99.90;;;;;;5047366;28;20392;-82
2024/01/02 06:34:08;;;;;;;;;;;6.60;99.90;;;;;;5037470;28;19942;-82
2024/01/02 06:36:34;;;;;;;;;;;6.80;99.90;;;;;;5047589;28;20183;-81
2024/01/02 06:38:59;;;;;;;;;;;6.60;99.90;;;;;;5048671;28;20372;-81
2024/01/02 06:41:25;;;;;;;;;;;6.60;99.90;;;;;;5069419;28;20371;-77
2024/01/02 06:43:50;;;;;;;;;;;6.70;99.90;;;;;;5052449;28;20648;-78
2024/01/02 06:46:17;;;;;;;;;;;6.70;99.90;;;;;;5069697;28;20442;-78
2024/01/02 06:48:42;;;;;;;;;;;6.70;99.90;;;;;;5054371;28;19927;-79
2024/01/02 06:51:08;;;;;;;;;;;6.80;99.90;;;;;;5049715;28;20313;-78
2024/01/02 06:53:33;;;;;;;;;;;6.60;99.90;;;;;;5045229;28;19921;-77
2024/01/02 06:55:59;;;;;;;;;;;6.70;99.90;;;;;;5051710;28;20283;-78
2024/01/02 06:58:24;;;;;;;;;;;6.70;99.90;;;;;;5051044;28;19921;-78
2024/01/02 07:00:50;;;;;;;;;;;6.70;99.90;;;;;;5049619;28;19924;-78
2024/01/02 07:03:17;;;;;;;;;;;6.70;99.90;;;;;;5054091;28;20291;-79
2024/01/02 07:05:42;;;;;;;;;;;6.70;99.90;;;;;;5052931;28;20211;-78
2024/01/02 07:08:08;;;;;;;;;;;6.70;99.90;;;;;;5046486;28;20898;-77
2024/01/02 07:10:33;;;;;;;;;;;6.70;99.90;;;;;;5046117;28;19920;-78
2024/01/02 07:12:59;;;;;;;;;;;6.60;99.90;;;;;;5050082;28;20284;-77
2024/01/02 07:15:24;;;;;;;;;;;6.70;99.90;;;;;;5050917;28;20370;-78
2024/01/02 07:17:50;;;;;;;;;;;6.80;99.90;;;;;;5053002;28;20337;-77
2024/01/02 07:20:15;;;;;;;;;;;6.70;99.90;;;;;;5052726;28;19924;-77
2024/01/02 07:22:41;;;;;;;;;;;6.70;99.90;;;;;;5051704;28;20190;-79
2024/01/02 07:25:07;;;;;;;;;;;6.70;99.90;;;;;;5052117;28;20348;-77
2024/01/02 07:27:32;;;;;;;;;;;6.70;99.90;;;;;;5046935;28;19920;-78
2024/01/02 07:29:58;;;;;;;;;;;6.70;99.90;;;;;;5051816;28;19920;-78
2024/01/02 07:32:23;;;;;;;;;;;6.70;99.90;;;;;;5040496;28;19928;-78
2024/01/02 07:34:49;;;;;;;;;;;6.80;99.90;;;;;;5052595;28;19924;-78
2024/01/02 07:37:14;;;;;;;;;;;6.70;99.90;;;;;;5067912;28;19916;-77
2024/01/02 07:39:40;;;;;;;;;;;7.00;99.90;;;;;;5052237;28;19921;-78
2024/01/02 07:42:06;;;;;;;;;;;6.70;99.90;;;;;;5050991;28;19920;-76
2024/01/02 07:44:32;;;;;;;;;;;6.80;99.90;;;;;;5051026;28;19928;-78
2024/01/02 07:46:57;;;;;;;;;;;6.80;99.90;;;;;;5051427;28;19924;-77
2024/01/02 07:49:23;;;;;;;;;;;6.80;99.90;;;;;;5051686;28;20356;-77
2024/01/02 07:51:48;;;;;;;;;;;6.80;99.90;;;;;;5052273;28;19921;-76
2024/01/02 07:54:14;;;;;;;;;;;6.80;99.90;;;;;;5052200;28;20011;-76
2024/01/02 07:56:39;;;;;;;;;;;6.80;99.90;;;;;;5038000;28;20320;-76
2024/01/02 07:59:05;;;;;;;;;;;6.90;99.90;;;;;;5064919;28;19970;-77
2024/01/02 08:01:31;;;;;;;;;;;6.90;99.90;;;;;;5050255;28;19924;-75
2024/01/02 08:03:56;;;;;;;;;;;6.90;99.90;;;;;;5050725;28;19920;-77
2024/01/02 08:06:22;;;;;;;;;;;6.90;99.90;;;;;;5051967;28;19974;-77
2024/01/02 08:08:48;;;;;;;;;;;6.90;99.90;;;;;;5051265;28;19978;-77
2024/01/02 08:11:13;;;;;;;;;;;6.90;99.90;;;;;;5048276;28;19920;-79
2024/01/02 08:13:39;;;;;;;;;;;7.00;99.90;;;;;;5041384;28;20221;-77
2024/01/02 08:16:04;;;;;;;;;;;7.10;99.90;;;;;;5036483;28;19944;-77
2024/01/02 08:18:30;;;;;;;;;;;7.00;99.90;;;;;;5046644;28;20038;-77
2024/01/02 08:20:56;;;;;;;;;;;7.30;99.90;;;;;;5047885;28;19966;-78
2024/01/02 08:23:22;;;;;;;;;;;7.10;99.90;;;;;;5048407;28;19974;-78
2024/01/02 08:25:49;;;;;;;;;;;7.10;99.90;;;;;;5047356;28;19959;-77
2024/01/02 08:28:15;;;;;;;;;;;7.10;99.90;;;;;;5047013;28;19929;-77
2024/01/02 08:30:40;;;;;;;;;;;7.20;99.90;;;;;;5047771;28;19921;-77
2024/01/02 08:33:06;;;;;;;;;;;7.20;99.90;;;;;;5042940;28;19927;-77
2024/01/02 08:35:33;;;;;;;;;;;7.20;99.90;;;;;;5040465;28;20261;-76
2024/01/02 08:37:59;;;;;;;;;;;7.30;99.90;;;;;;5047318;28;19921;-76
2024/01/02 08:40:25;;;;;;;;;;;7.30;99.90;;;;;;5041837;28;19921;-77
2024/01/02 08:42:51;;;;;;;;;;;7.30;99.90;;;;;;5047376;28;20230;-76
2024/01/02 08:45:16;;;;;;;;;;;7.40;99.90;;;;;;5044873;28;19921;-77
2024/01/02 08:47:42;;;;;;;;;;;7.40;99.90;;;;;;5049599;28;21387;-76
2024/01/02 08:50:08;;;;;;;;;;;7.40;99.90;;;;;;5047245;28;19970;-77
2024/01/02 08:52:35;;;;;;;;;;;7.50;99.90;;;;;;5046058;28;19928;-78
2024/01/02 08:55:01;;;;;;;;;;;7.50;99.90;;;;;;5047187;28;19927;-77
2024/01/02 08:57:26;;;;;;;;;;;7.60;99.90;;;;;;5046339;28;19935;-77
2024/01/02 08:59:52;;;;;;;;;;;7.60;99.90;;;;;;5043925;28;20373;-77
2024/01/02 09:02:17;;;;;;;;;;;7.70;99.90;;;;;;5045313;28;20245;-77
2024/01/02 09:04:43;;;;;;;;;;;7.70;99.90;;;;;;5047102;28;20024;-73
2024/01/02 09:07:09;;;;;;;;;;;7.80;99.90;;;;;;5047042;28;20336;-73
2024/01/02 09:09:35;;;;;;;;;;;7.70;99.90;;;;;;5048336;28;20249;-80
2024/01/02 09:12:02;;;;;;;;;;;7.80;99.90;;;;;;5046204;28;19928;-70
2024/01/02 09:14:28;;;;;;;;;;;8.00;99.90;;;;;;5061059;28;20031;-70
2024/01/02 09:16:54;;;;;;;;;;;8.00;99.90;;;;;;5048374;28;19965;-70
2024/01/02 09:19:19;;;;;;;;;;;8.00;99.90;;;;;;5051526;28;20269;-71
2024/01/02 09:21:45;;;;;;;;;;;8.10;99.90;;;;;;5050105;28;19920;-70
2024/01/02 09:24:11;;;;;;;;;;;8.20;99.90;;;;;;5050183;28;19948;-70
2024/01/02 09:26:39;;;;;;;;;;;8.40;99.90;;;;;;5056454;28;19921;-70
2024/01/02 09:29:04;;;;;;;;;;;8.30;99.90;;;;;;5038312;28;20394;-70
2024/01/02 09:31:30;;;;;;;;;;;8.30;99.90;;;;;;5052284;28;20011;-70
2024/01/02 09:33:56;;;;;;;;;;;8.50;99.90;;;;;;5043376;28;19921;-70
2024/01/02 09:36:22;;;;;;;;;;;8.60;99.90;;;;;;5047868;28;19981;-71
2024/01/02 09:38:47;;;;;;;;;;;8.70;99.90;;;;;;5050458;28;20596;-70
2024/01/02 09:41:19;;;;;;;;;;;8.70;99.90;;;;;;5047256;28;20418;-71
2024/01/02 09:43:54;;;;;;;;;;;8.80;99.90;;;;;;5050207;28;20328;-73
2024/01/02 09:46:43;;;;;;;;;;;8.80;99.90;;;;;;5049377;28;19920;-71
2024/01/02 09:49:25;;;;;;;;;;;9.00;99.90;;;;;;4996289;28;20328;-72
2024/01/02 09:52:05;;;;;;;;;;;9.10;99.90;;;;;;5049497;28;20275;-70
2024/01/02 09:54:50;;;;;;;;;;;9.20;99.90;;;;;;5065932;28;19920;-71
2024/01/02 09:57:19;;;;;;;;;;;9.30;99.90;;;;;;5065719;28;20524;-71
2024/01/02 10:00:00;;;;;;;;;;;9.40;99.90;;;;;;5047833;28;19920;-70
2024/01/02 10:02:35;;;;;;;;;;;9.40;99.90;;;;;;5043013;28;19920;-71
2024/01/02 10:05:11;;;;;;;;;;;9.50;99.90;;;;;;5052974;28;19920;-70
2024/01/02 10:07:44;;;;;;;;;;;9.50;99.90;;;;;;5053533;28;19920;-70
2024/01/02 10:10:24;;;;;;;;;;;9.70;99.90;;;;;;5052736;28;20028;-70
2024/01/02 10:12:49;;;;;;;;;;;9.60;99.90;;;;;;5074606;28;19933;-70
2024/01/02 10:15:18;;;;;;;;;;;9.70;99.90;;;;;;5052940;28;19971;-71
2024/01/02 10:17:43;;;;;;;;;;;9.70;99.90;;;;;;5054075;28;19916;-70
2024/01/02 10:20:12;;;;;;;;;;;9.80;99.90;;;;;;5051324;28;19920;-71
2024/01/02 10:22:43;;;;;;;;;;;9.80;99.90;;;;;;5053468;28;19943;-70
2024/01/02 10:25:12;;;;;;;;;;;9.90;99.90;;;;;;5065143;28;19924;-70
2024/01/02 10:27:50;;;;;;;;;;;9.90;99.90;;;;;;5072291;28;19924;-70
2024/01/02 10:30:21;;;;;;;;;;;9.90;99.90;;;;;;5052360;28;19985;-70
2024/01/02 10:32:56;;;;;;;;;;;10.00;99.90;;;;;;5060808;28;20024;-70
2024/01/02 10:35:26;;;;;;;;;;;10.00;99.90;;;;;;5057092;28;20007;-71
2024/01/02 10:38:04;;;;;;;;;;;10.00;99.90;;;;;;5049252;28;20429;-71
2024/01/02 10:40:30;;;;;;;;;;;10.10;99.90;;;;;;5050179;28;19920;-70
2024/01/02 10:43:24;;;;;;;;;;;10.10;99.90;;;;;;5049779;28;19920;-71
2024/01/02 10:45:57;;;;;;;;;;;10.20;99.90;;;;;;5047425;28;20020;-71
2024/01/02 10:48:22;;;;;;;;;;;10.20;99.90;;;;;;5053713;28;19916;-71
2024/01/02 10:50:48;;;;;;;;;;;10.30;99.90;;;;;;5053562;28;19982;-70
2024/01/02 10:53:20;;;;;;;;;;;10.30;99.90;;;;;;5052245;28;19916;-71
2024/01/02 10:55:50;;;;;;;;;;;10.30;99.90;;;;;;5064744;28;19930;-71
2024/01/02 10:58:19;;;;;;;;;;;10.30;99.90;;;;;;5066165;28;20310;-71
2024/01/02 11:00:51;;;;;;;;;;;10.40;99.90;;;;;;5052926;28;20358;-71
2024/01/02 11:03:18;;;;;;;;;;;10.40;99.90;;;;;;5070985;28;19987;-71
2024/01/02 11:05:44;;;;;;;;;;;10.50;99.90;;;;;;5053495;28;20053;-71
2024/01/02 11:08:40;;;;;;;;;;;10.50;99.90;;;;;;5054020;28;19946;-71
2024/01/02 11:11:09;;;;;;;;;;;10.50;99.90;;;;;;5036756;28;19921;-71
2024/01/02 11:13:38;;;;;;;;;;;10.70;99.90;;;;;;5047273;28;19928;-71
2024/01/02 11:16:15;;;;;;;;;;;10.60;99.90;;;;;;5050203;28;19920;-71
2024/01/02 11:18:44;;;;;;;;;;;10.60;99.90;;;;;;5050827;28;19921;-72
2024/01/02 11:21:12;;;;;;;;;;;10.60;99.90;;;;;;5049529;28;19921;-71
2024/01/02 11:23:42;;;;;;;;;;;10.70;99.90;;;;;;5050998;28;20343;-72
2024/01/02 11:26:24;;;;;;;;;;;10.60;99.90;;;;;;5048485;28;19925;-72
2024/01/02 11:28:51;;;;;;;;;;;10.70;99.90;;;;;;5042979;28;19925;-71
2024/01/02 11:31:17;;;;;;;;;;;10.70;99.90;;;;;;5042104;28;19921;-71
2024/01/02 11:34:00;;;;;;;;;;;10.70;99.90;;;;;;5048434;28;20016;-71
2024/01/02 11:36:29;;;;;;;;;;;10.70;99.90;;;;;;5043424;28;19921;-71
2024/01/02 11:38:54;;;;;;;;;;;10.80;99.90;;;;;;5049413;28;20007;-71
2024/01/02 11:41:44;;;;;;;;;;;10.80;99.90;;;;;;5048826;28;20402;-71
2024/01/02 11:44:24;;;;;;;;;;;10.90;99.90;;;;;;5048868;28;20260;-71
2024/01/02 11:46:56;;;;;;;;;;;10.90;99.90;;;;;;5048880;28;19921;-70
2024/01/02 11:49:22;;;;;;;;;;;11.00;99.90;;;;;;5046943;28;19921;-71
2024/01/02 11:51:51;;;;;;;;;;;11.00;99.90;;;;;;5043899;28;20427;-71
2024/01/02 11:54:46;;;;;;;;;;;11.20;99.90;;;;;;5036247;28;19927;-71
2024/01/02 11:57:17;;;;;;;;;;;11.00;99.90;;;;;;4992274;28;19991;-71
2024/01/02 11:59:52;;;;;;;;;;;11.00;99.90;;;;;;5029758;28;19920;-71
2024/01/02 12:02:24;;;;;;;;;;;11.00;99.90;;;;;;5029348;28;19921;-71
2024/01/02 12:05:13;;;;;;;;;;;11.00;99.90;;;;;;5043094;28;20250;-72
2024/01/02 12:07:41;;;;;;;;;;;11.00;99.90;;;;;;5012523;28;19920;-71
2024/01/02 12:10:07;;;;;;;;;;;11.00;99.90;;;;;;5048046;28;20380;-71
2024/01/02 12:12:53;;;;;;;;;;;11.10;99.90;;;;;;5050516;28;20460;-71
2024/01/02 12:15:42;;;;;;;;;;;11.00;99.90;;;;;;5061768;28;19956;-71
2024/01/02 12:18:09;;;;;;;;;;;11.00;99.90;;;;;;5054898;28;19931;-71
2024/01/02 12:20:41;;;;;;;;;;;11.00;99.90;;;;;;5053155;28;20425;-70
2024/01/02 12:23:07;;;;;;;;;;;11.00;99.90;;;;;;5050874;28;20376;-70
2024/01/02 12:25:33;;;;;;;;;;;11.00;99.90;;;;;;5043324;28;19928;-72
2024/01/02 12:28:00;;;;;;;;;;;11.00;99.90;;;;;;5048671;28;19928;-69
2024/01/02 12:30:41;;;;;;;;;;;11.00;99.90;;;;;;5050302;28;19975;-70
2024/01/02 12:33:09;;;;;;;;;;;11.00;99.90;;;;;;5085842;28;19927;-70
2024/01/02 12:35:58;;;;;;;;;;;11.00;99.90;;;;;;5066853;28;19971;-69
2024/01/02 12:38:25;;;;;;;;;;;11.00;99.90;;;;;;5012898;28;19920;-69
2024/01/02 12:40:51;;;;;;;;;;;11.00;99.90;;;;;;5049773;28;19968;-70
2024/01/02 12:43:23;;;;;;;;;;;11.00;99.90;;;;;;5050651;28;19960;-69
2024/01/02 12:45:58;;;;;;;;;;;11.00;99.90;;;;;;5067712;28;20629;-70
2024/01/02 12:48:25;;;;;;;;;;;11.00;99.90;;;;;;5051986;28;19921;-69
2024/01/02 12:50:53;;;;;;;;;;;11.00;99.90;;;;;;5052245;28;19916;-69
2024/01/02 12:53:20;;;;;;;;;;;11.00;99.90;;;;;;5050658;28;19924;-70
2024/01/02 12:55:52;;;;;;;;;;;11.00;99.90;;;;;;5051373;28;20360;-71
2024/01/02 12:58:18;;;;;;;;;;;10.90;99.90;;;;;;5048294;28;19928;-70
2024/01/02 13:00:44;;;;;;;;;;;10.90;99.90;;;;;;5054822;28;20022;-70
2024/01/02 13:03:14;;;;;;;;;;;11.00;99.90;;;;;;5071406;28;19920;-70
2024/01/02 13:05:40;;;;;;;;;;;11.00;99.90;;;;;;5050851;28;19921;-70
2024/01/02 13:08:06;;;;;;;;;;;10.90;99.90;;;;;;5050705;28;20296;-70
2024/01/02 13:10:31;;;;;;;;;;;10.90;99.90;;;;;;5052224;28;19928;-70
2024/01/02 13:12:57;;;;;;;;;;;10.90;99.90;;;;;;5067796;28;19924;-70
2024/01/02 13:15:22;;;;;;;;;;;10.90;99.90;;;;;;5043841;28;19947;-70
2024/01/02 13:17:49;;;;;;;;;;;11.00;99.90;;;;;;5048379;28;20030;-70
2024/01/02 13:20:15;;;;;;;;;;;11.20;99.90;;;;;;5049431;28;20500;-70
2024/01/02 13:22:41;;;;;;;;;;;10.90;99.90;;;;;;5052129;28;20497;-70
2024/01/02 13:25:14;;;;;;;;;;;10.90;99.90;;;;;;5050101;28;20015;-70
2024/01/02 13:27:40;;;;;;;;;;;10.90;99.90;;;;;;5046996;28;19916;-70
2024/01/02 13:30:06;;;;;;;;;;;10.90;99.90;;;;;;5039218;28;19928;-70
2024/01/02 13:32:35;;;;;;;;;;;10.90;99.90;;;;;;5043109;28;19924;-70
2024/01/02 13:35:13;;;;;;;;;;;10.90;99.90;;;;;;5068778;28;19921;-69
2024/01/02 13:37:39;;;;;;;;;;;10.90;99.90;;;;;;5047903;28;20015;-70
2024/01/02 13:40:16;;;;;;;;;;;10.80;99.90;;;;;;5048033;28;20454;-70
2024/01/02 13:42:41;;;;;;;;;;;10.80;99.90;;;;;;5045430;28;20334;-70
2024/01/02 13:45:20;;;;;;;;;;;10.80;99.90;;;;;;5036692;28;19929;-70
2024/01/02 13:47:46;;;;;;;;;;;10.80;99.90;;;;;;5060200;28;20474;-70
2024/01/02 13:50:12;;;;;;;;;;;10.80;99.90;;;;;;5043409;28;19968;-71
2024/01/02 13:52:38;;;;;;;;;;;10.80;99.90;;;;;;5049701;28;19924;-70
2024/01/02 13:55:04;;;;;;;;;;;10.80;99.90;;;;;;5043702;28;19920;-71
2024/01/02 13:57:32;;;;;;;;;;;10.80;99.90;;;;;;5050022;28;19931;-73
2024/01/02 13:59:58;;;;;;;;;;;10.80;99.90;;;;;;5047850;28;19925;-70
2024/01/02 14:02:27;;;;;;;;;;;10.80;99.90;;;;;;5049701;28;19929;-71
2024/01/02 14:04:57;;;;;;;;;;;10.80;99.90;;;;;;5050377;28;19921;-71
2024/01/02 14:07:23;;;;;;;;;;;10.80;99.90;;;;;;5048175;28;19916;-70
2024/01/02 14:09:49;;;;;;;;;;;10.80;99.90;;;;;;5046999;28;19932;-74
2024/01/02 14:12:14;;;;;;;;;;;10.80;99.90;;;;;;5048847;28;19923;-71
2024/01/02 14:14:47;;;;;;;;;;;10.70;99.90;;;;;;5065836;28;19920;-71
2024/01/02 14:17:32;;;;;;;;;;;10.70;99.90;;;;;;5045135;28;19927;-70
2024/01/02 14:20:06;;;;;;;;;;;10.80;99.90;;;;;;5035710;28;19924;-71
2024/01/02 14:22:52;;;;;;;;;;;10.70;99.90;;;;;;5043667;28;19928;-71
2024/01/02 14:25:27;;;;;;;;;;;10.70;99.90;;;;;;5038534;28;19921;-71
2024/01/02 14:28:07;;;;;;;;;;;10.70;99.90;;;;;;5037137;28;19923;-71